sensor_id;sensor_type;location;lat;lon;timestamp;pressure;altitude;pressure_sealevel;temperature;humidity
57056;BME280;42945;51.718;5.324;2023-05-24T00:04:31;102282.88;;;6.50;100.00
57056;BME280;42945;51.718;5.324;2023-05-24T00:10:20;102218.03;;;6.41;100.00
57056;BME280;42945;51.718;5.324;2023-05-24T00:16:08;102236.53;;;6.38;100.00
57056;BME280;42945;51.718;5.324;2023-05-24T00:21:56;102294.44;;;6.41;100.00
57056;BME280;42945;51.718;5.324;2023-05-24T00:27:44;102154.25;;;5.69;100.00
57056;BME280;42945;51.718;5.324;2023-05-24T00:33:32;102258.53;;;6.36;100.00
57056;BME280;42945;51.718;5.324;2023-05-24T00:39:19;102178.00;;;5.66;100.00
57056;BME280;42945;51.718;5.324;2023-05-24T00:45:08;102235.75;;;6.33;100.00
57056;BME280;42945;51.718;5.324;2023-05-24T00:50:56;102231.78;;;6.09;100.00
57056;BME280;42945;51.718;5.324;2023-05-24T00:56:44;102253.94;;;5.92;100.00
57056;BME280;42945;51.718;5.324;2023-05-24T01:02:33;102267.13;;;5.91;100.00
57056;BME280;42945;51.718;5.324;2023-05-24T01:08:45;102276.09;;;5.78;100.00
57056;BME280;42945;51.718;5.324;2023-05-24T01:14:43;102158.69;;;5.08;100.00
57056;BME280;42945;51.718;5.324;2023-05-24T01:20:36;102169.31;;;4.98;100.00
57056;BME280;42945;51.718;5.324;2023-05-24T01:30:16;102264.97;;;5.59;100.00
57056;BME280;42945;51.718;5.324;2023-05-24T01:36:05;102234.28;;;5.56;100.00
57056;BME280;42945;51.718;5.324;2023-05-24T01:54:05;102105.56;;;4.82;100.00
57056;BME280;42945;51.718;5.324;2023-05-24T01:59:55;102266.88;;;5.47;100.00
57056;BME280;42945;51.718;5.324;2023-05-24T02:05:44;102176.63;;;4.76;100.00
57056;BME280;42945;51.718;5.324;2023-05-24T02:11:32;102251.19;;;5.41;100.00
57056;BME280;42945;51.718;5.324;2023-05-24T02:17:20;102187.13;;;4.77;100.00
57056;BME280;42945;51.718;5.324;2023-05-24T02:23:09;102184.44;;;4.80;100.00
57056;BME280;42945;51.718;5.324;2023-05-24T02:32:56;102277.50;;;5.38;100.00
57056;BME280;42945;51.718;5.324;2023-05-24T02:38:45;102315.22;;;5.39;100.00
57056;BME280;42945;51.718;5.324;2023-05-24T02:44:33;102249.41;;;5.43;100.00
57056;BME280;42945;51.718;5.324;2023-05-24T02:50:21;102272.16;;;5.46;100.00
57056;BME280;42945;51.718;5.324;2023-05-24T02:56:10;102254.75;;;5.36;100.00
57056;BME280;42945;51.718;5.324;2023-05-24T03:01:59;102242.47;;;5.36;100.00
57056;BME280;42945;51.718;5.324;2023-05-24T03:07:47;102279.09;;;5.53;100.00
57056;BME280;42945;51.718;5.324;2023-05-24T03:13:34;102187.88;;;4.87;100.00
57056;BME280;42945;51.718;5.324;2023-05-24T03:19:22;102224.16;;;5.28;100.00
57056;BME280;42945;51.718;5.324;2023-05-24T03:25:09;102234.50;;;5.41;100.00
57056;BME280;42945;51.718;5.324;2023-05-24T03:34:51;102278.34;;;5.42;100.00
57056;BME280;42945;51.718;5.324;2023-05-24T03:40:38;102286.16;;;5.46;100.00
57056;BME280;42945;51.718;5.324;2023-05-24T03:43:04;102125.78;;;4.77;100.00
57056;BME280;42945;51.718;5.324;2023-05-24T03:45:29;102147.66;;;4.79;100.00
57056;BME280;42945;51.718;5.324;2023-05-24T03:47:55;102259.94;;;5.40;100.00
57056;BME280;42945;51.718;5.324;2023-05-24T03:50:21;102232.59;;;5.52;100.00
57056;BME280;42945;51.718;5.324;2023-05-24T03:52:46;102271.22;;;5.50;100.00
57056;BME280;42945;51.718;5.324;2023-05-24T03:55:12;102268.56;;;5.51;100.00
57056;BME280;42945;51.718;5.324;2023-05-24T03:57:39;102291.31;;;5.56;100.00
57056;BME280;42945;51.718;5.324;2023-05-24T04:00:06;102267.56;;;5.60;100.00
57056;BME280;42945;51.718;5.324;2023-05-24T04:02:31;102252.66;;;5.61;100.00
57056;BME280;42945;51.718;5.324;2023-05-24T04:04:57;102255.22;;;5.65;100.00
57056;BME280;42945;51.718;5.324;2023-05-24T04:07:22;102284.03;;;5.75;100.00
57056;BME280;42945;51.718;5.324;2023-05-24T04:09:48;102242.91;;;5.67;100.00
57056;BME280;42945;51.718;5.324;2023-05-24T04:12:14;102272.81;;;5.62;100.00
57056;BME280;42945;51.718;5.324;2023-05-24T04:14:39;102125.38;;;5.07;100.00
57056;BME280;42945;51.718;5.324;2023-05-24T04:17:04;102275.22;;;5.79;100.00
57056;BME280;42945;51.718;5.324;2023-05-24T04:19:31;102611.28;;;5.83;100.00
57056;BME280;42945;51.718;5.324;2023-05-24T04:21:56;102263.59;;;5.92;100.00
57056;BME280;42945;51.718;5.324;2023-05-24T04:24:22;102292.50;;;5.98;100.00
57056;BME280;42945;51.718;5.324;2023-05-24T04:26:49;102184.38;;;6.07;100.00
57056;BME280;42945;51.718;5.324;2023-05-24T04:29:15;102231.69;;;6.12;100.00
57056;BME280;42945;51.718;5.324;2023-05-24T04:31:40;102243.97;;;6.15;100.00
57056;BME280;42945;51.718;5.324;2023-05-24T04:34:08;102234.75;;;6.40;100.00
57056;BME280;42945;51.718;5.324;2023-05-24T04:36:37;102254.06;;;6.41;100.00
57056;BME280;42945;51.718;5.324;2023-05-24T04:39:02;102222.78;;;6.21;100.00
57056;BME280;42945;51.718;5.324;2023-05-24T04:41:29;102230.34;;;6.39;100.00
57056;BME280;42945;51.718;5.324;2023-05-24T04:44:00;102263.63;;;6.46;100.00
57056;BME280;42945;51.718;5.324;2023-05-24T04:46:26;102304.69;;;6.60;100.00
57056;BME280;42945;51.718;5.324;2023-05-24T04:48:51;102111.75;;;5.92;100.00
57056;BME280;42945;51.718;5.324;2023-05-24T04:51:17;102392.56;;;7.57;100.00
57056;BME280;42945;51.718;5.324;2023-05-24T04:53:42;102216.25;;;6.88;100.00
57056;BME280;42945;51.718;5.324;2023-05-24T04:56:08;102272.34;;;6.97;100.00
57056;BME280;42945;51.718;5.324;2023-05-24T04:58:33;102178.56;;;6.38;100.00
57056;BME280;42945;51.718;5.324;2023-05-24T05:00:59;102239.63;;;7.05;100.00
57056;BME280;42945;51.718;5.324;2023-05-24T05:03:25;102236.97;;;7.07;100.00
57056;BME280;42945;51.718;5.324;2023-05-24T05:05:51;102276.25;;;7.21;100.00
57056;BME280;42945;51.718;5.324;2023-05-24T05:08:16;102225.81;;;7.35;100.00
57056;BME280;42945;51.718;5.324;2023-05-24T05:10:41;102151.38;;;6.80;100.00
57056;BME280;42945;51.718;5.324;2023-05-24T05:13:07;102264.06;;;7.57;100.00
57056;BME280;42945;51.718;5.324;2023-05-24T05:15:32;102247.25;;;7.60;100.00
57056;BME280;42945;51.718;5.324;2023-05-24T05:17:57;102098.28;;;6.97;100.00
57056;BME280;42945;51.718;5.324;2023-05-24T05:20:23;102254.13;;;8.04;100.00
57056;BME280;42945;51.718;5.324;2023-05-24T05:22:48;102246.09;;;8.11;100.00
57056;BME280;42945;51.718;5.324;2023-05-24T05:25:14;102231.28;;;8.03;100.00
57056;BME280;42945;51.718;5.324;2023-05-24T05:27:39;102222.16;;;8.17;100.00
57056;BME280;42945;51.718;5.324;2023-05-24T05:30:05;102222.31;;;8.11;100.00
57056;BME280;42945;51.718;5.324;2023-05-24T05:32:31;102127.16;;;7.40;100.00
57056;BME280;42945;51.718;5.324;2023-05-24T05:34:56;102234.22;;;8.27;100.00
57056;BME280;42945;51.718;5.324;2023-05-24T05:37:21;102147.00;;;7.58;100.00
57056;BME280;42945;51.718;5.324;2023-05-24T05:39:47;102279.59;;;8.46;100.00
57056;BME280;42945;51.718;5.324;2023-05-24T05:42:12;102580.03;;;10.61;100.00
57056;BME280;42945;51.718;5.324;2023-05-24T05:44:37;102249.53;;;8.48;100.00
57056;BME280;42945;51.718;5.324;2023-05-24T05:47:02;102263.28;;;8.63;100.00
57056;BME280;42945;51.718;5.324;2023-05-24T05:49:29;102122.00;;;8.06;100.00
57056;BME280;42945;51.718;5.324;2023-05-24T05:51:55;102221.69;;;8.99;100.00
57056;BME280;42945;51.718;5.324;2023-05-24T05:54:21;102268.44;;;9.00;100.00
57056;BME280;42945;51.718;5.324;2023-05-24T05:56:46;102275.59;;;9.26;100.00
57056;BME280;42945;51.718;5.324;2023-05-24T05:59:15;102245.72;;;9.23;100.00
57056;BME280;42945;51.718;5.324;2023-05-24T06:01:40;102305.25;;;9.69;100.00
57056;BME280;42945;51.718;5.324;2023-05-24T06:04:06;102258.13;;;9.51;100.00
57056;BME280;42945;51.718;5.324;2023-05-24T06:06:31;102257.59;;;9.96;100.00
57056;BME280;42945;51.718;5.324;2023-05-24T06:08:58;102211.00;;;9.89;100.00
57056;BME280;42945;51.718;5.324;2023-05-24T06:11:23;102147.56;;;9.01;100.00
57056;BME280;42945;51.718;5.324;2023-05-24T06:13:49;102142.06;;;8.79;100.00
57056;BME280;42945;51.718;5.324;2023-05-24T06:16:14;102241.78;;;9.66;100.00
57056;BME280;42945;51.718;5.324;2023-05-24T06:18:40;102161.31;;;9.14;100.00
57056;BME280;42945;51.718;5.324;2023-05-24T06:21:06;102227.31;;;9.76;100.00
57056;BME280;42945;51.718;5.324;2023-05-24T06:23:35;102210.72;;;10.24;100.00
57056;BME280;42945;51.718;5.324;2023-05-24T06:26:00;102213.25;;;10.28;100.00
57056;BME280;42945;51.718;5.324;2023-05-24T06:28:26;102254.91;;;10.24;100.00
57056;BME280;42945;51.718;5.324;2023-05-24T06:30:51;102240.94;;;10.19;100.00
57056;BME280;42945;51.718;5.324;2023-05-24T06:33:16;102250.63;;;9.93;100.00
57056;BME280;42945;51.718;5.324;2023-05-24T06:35:41;102053.88;;;9.06;100.00
57056;BME280;42945;51.718;5.324;2023-05-24T06:38:07;102223.78;;;10.29;100.00
57056;BME280;42945;51.718;5.324;2023-05-24T06:40:32;102193.31;;;9.91;100.00
57056;BME280;42945;51.718;5.324;2023-05-24T06:42:57;102227.53;;;10.50;100.00
57056;BME280;42945;51.718;5.324;2023-05-24T06:45:23;102199.19;;;10.76;100.00
57056;BME280;42945;51.718;5.324;2023-05-24T06:47:48;102244.13;;;11.06;100.00
57056;BME280;42945;51.718;5.324;2023-05-24T06:50:13;102251.06;;;10.84;100.00
57056;BME280;42945;51.718;5.324;2023-05-24T06:52:40;102374.47;;;11.48;100.00
57056;BME280;42945;51.718;5.324;2023-05-24T06:55:06;102228.88;;;11.34;100.00
57056;BME280;42945;51.718;5.324;2023-05-24T06:57:31;102113.25;;;10.31;100.00
57056;BME280;42945;51.718;5.324;2023-05-24T06:59:56;102271.59;;;10.79;100.00
57056;BME280;42945;51.718;5.324;2023-05-24T07:02:22;102232.41;;;10.88;100.00
57056;BME280;42945;51.718;5.324;2023-05-24T07:04:51;102090.84;;;10.15;100.00
57056;BME280;42945;51.718;5.324;2023-05-24T07:07:16;102270.47;;;10.87;100.00
57056;BME280;42945;51.718;5.324;2023-05-24T07:09:42;102233.97;;;10.68;100.00
57056;BME280;42945;51.718;5.324;2023-05-24T07:12:08;102234.63;;;10.75;100.00
57056;BME280;42945;51.718;5.324;2023-05-24T07:14:34;102194.50;;;10.59;100.00
57056;BME280;42945;51.718;5.324;2023-05-24T07:16:59;102106.22;;;9.80;100.00
57056;BME280;42945;51.718;5.324;2023-05-24T07:19:24;102114.66;;;10.16;100.00
57056;BME280;42945;51.718;5.324;2023-05-24T07:21:56;102235.66;;;11.41;100.00
57056;BME280;42945;51.718;5.324;2023-05-24T07:24:22;102230.94;;;11.72;100.00
57056;BME280;42945;51.718;5.324;2023-05-24T07:26:48;102213.66;;;11.38;100.00
57056;BME280;42945;51.718;5.324;2023-05-24T07:29:14;102204.97;;;11.11;100.00
57056;BME280;42945;51.718;5.324;2023-05-24T07:31:40;102196.16;;;11.56;100.00
57056;BME280;42945;51.718;5.324;2023-05-24T07:34:05;102215.59;;;11.56;100.00
57056;BME280;42945;51.718;5.324;2023-05-24T07:36:30;102246.78;;;11.75;100.00
57056;BME280;42945;51.718;5.324;2023-05-24T07:38:57;102246.84;;;11.95;100.00
57056;BME280;42945;51.718;5.324;2023-05-24T07:41:25;102239.81;;;11.94;100.00
57056;BME280;42945;51.718;5.324;2023-05-24T07:43:51;102072.53;;;11.68;100.00
57056;BME280;42945;51.718;5.324;2023-05-24T07:46:16;109410.09;;;54.56;100.00
57056;BME280;42945;51.718;5.324;2023-05-24T07:48:41;102173.31;;;12.76;100.00
57056;BME280;42945;51.718;5.324;2023-05-24T07:51:06;102194.72;;;12.73;100.00
57056;BME280;42945;51.718;5.324;2023-05-24T07:53:32;102161.25;;;11.86;100.00
57056;BME280;42945;51.718;5.324;2023-05-24T07:55:58;102218.91;;;12.28;100.00
57056;BME280;42945;51.718;5.324;2023-05-24T07:58:24;102264.63;;;12.37;100.00
57056;BME280;42945;51.718;5.324;2023-05-24T08:00:50;102092.47;;;12.00;100.00
57056;BME280;42945;51.718;5.324;2023-05-24T08:03:16;102232.34;;;13.05;100.00
57056;BME280;42945;51.718;5.324;2023-05-24T08:05:42;102177.69;;;12.96;100.00
57056;BME280;42945;51.718;5.324;2023-05-24T08:08:07;102222.69;;;12.43;100.00
57056;BME280;42945;51.718;5.324;2023-05-24T08:10:33;102216.44;;;12.02;100.00
57056;BME280;42945;51.718;5.324;2023-05-24T08:12:58;102196.09;;;12.63;100.00
57056;BME280;42945;51.718;5.324;2023-05-24T08:15:24;102107.25;;;12.26;100.00
57056;BME280;42945;51.718;5.324;2023-05-24T08:17:49;102235.59;;;14.23;100.00
57056;BME280;42945;51.718;5.324;2023-05-24T08:20:14;102235.47;;;13.53;100.00
57056;BME280;42945;51.718;5.324;2023-05-24T08:22:41;102016.34;;;11.77;100.00
57056;BME280;42945;51.718;5.324;2023-05-24T08:25:07;102111.47;;;11.69;100.00
57056;BME280;42945;51.718;5.324;2023-05-24T08:27:33;102202.22;;;12.24;100.00
57056;BME280;42945;51.718;5.324;2023-05-24T08:29:59;102242.31;;;12.40;100.00
57056;BME280;42945;51.718;5.324;2023-05-24T08:32:25;102117.53;;;12.92;100.00
57056;BME280;42945;51.718;5.324;2023-05-24T08:34:50;102099.13;;;12.88;100.00
57056;BME280;42945;51.718;5.324;2023-05-24T08:37:16;102250.84;;;13.67;100.00
57056;BME280;42945;51.718;5.324;2023-05-24T08:39:44;102186.63;;;13.52;100.00
57056;BME280;42945;51.718;5.324;2023-05-24T08:42:10;102141.44;;;13.86;100.00
57056;BME280;42945;51.718;5.324;2023-05-24T08:44:40;102211.13;;;14.49;100.00
57056;BME280;42945;51.718;5.324;2023-05-24T08:47:12;102140.28;;;13.18;100.00
57056;BME280;42945;51.718;5.324;2023-05-24T08:49:38;102249.47;;;13.39;100.00
57056;BME280;42945;51.718;5.324;2023-05-24T08:52:05;102097.25;;;13.09;100.00
57056;BME280;42945;51.718;5.324;2023-05-24T08:54:35;102230.03;;;14.10;100.00
57056;BME280;42945;51.718;5.324;2023-05-24T08:57:01;102202.94;;;13.83;100.00
57056;BME280;42945;51.718;5.324;2023-05-24T08:59:27;102090.91;;;12.35;100.00
57056;BME280;42945;51.718;5.324;2023-05-24T09:01:53;102171.88;;;13.82;100.00
57056;BME280;42945;51.718;5.324;2023-05-24T09:04:20;102074.81;;;12.76;100.00
57056;BME280;42945;51.718;5.324;2023-05-24T09:06:47;102166.81;;;13.94;100.00
57056;BME280;42945;51.718;5.324;2023-05-24T09:09:13;102176.94;;;13.32;100.00
57056;BME280;42945;51.718;5.324;2023-05-24T09:11:42;102187.72;;;13.48;100.00
57056;BME280;42945;51.718;5.324;2023-05-24T09:14:09;102163.75;;;13.48;100.00
57056;BME280;42945;51.718;5.324;2023-05-24T09:16:34;102171.19;;;13.95;100.00
57056;BME280;42945;51.718;5.324;2023-05-24T09:19:00;102193.78;;;14.23;100.00
57056;BME280;42945;51.718;5.324;2023-05-24T09:21:25;102190.94;;;14.94;100.00
57056;BME280;42945;51.718;5.324;2023-05-24T09:23:52;102156.88;;;14.66;100.00
57056;BME280;42945;51.718;5.324;2023-05-24T09:26:17;102187.84;;;13.64;100.00
57056;BME280;42945;51.718;5.324;2023-05-24T09:28:42;102184.66;;;13.38;100.00
57056;BME280;42945;51.718;5.324;2023-05-24T09:31:08;102171.38;;;13.56;100.00
57056;BME280;42945;51.718;5.324;2023-05-24T09:33:34;102041.97;;;12.95;100.00
57056;BME280;42945;51.718;5.324;2023-05-24T09:36:06;102185.34;;;13.61;100.00
57056;BME280;42945;51.718;5.324;2023-05-24T09:38:33;102300.75;;;14.36;100.00
57056;BME280;42945;51.718;5.324;2023-05-24T09:41:05;102083.03;;;13.27;100.00
57056;BME280;42945;51.718;5.324;2023-05-24T09:43:31;102146.44;;;14.27;100.00
57056;BME280;42945;51.718;5.324;2023-05-24T09:46:01;102180.28;;;14.26;100.00
57056;BME280;42945;51.718;5.324;2023-05-24T09:48:27;102210.03;;;14.87;100.00
57056;BME280;42945;51.718;5.324;2023-05-24T09:51:05;102099.47;;;14.07;100.00
57056;BME280;42945;51.718;5.324;2023-05-24T09:53:34;102167.47;;;14.68;100.00
57056;BME280;42945;51.718;5.324;2023-05-24T09:56:02;102207.03;;;14.25;100.00
57056;BME280;42945;51.718;5.324;2023-05-24T09:58:29;102145.94;;;14.03;100.00
57056;BME280;42945;51.718;5.324;2023-05-24T10:01:03;102262.28;;;16.21;100.00
57056;BME280;42945;51.718;5.324;2023-05-24T10:03:30;102176.28;;;15.65;100.00
57056;BME280;42945;51.718;5.324;2023-05-24T10:05:56;102211.78;;;14.88;100.00
57056;BME280;42945;51.718;5.324;2023-05-24T10:08:22;102191.41;;;15.03;100.00
57056;BME280;42945;51.718;5.324;2023-05-24T10:10:48;102113.50;;;15.10;100.00
57056;BME280;42945;51.718;5.324;2023-05-24T10:13:14;102173.53;;;15.83;100.00
57056;BME280;42945;51.718;5.324;2023-05-24T10:15:43;102185.78;;;15.23;100.00
57056;BME280;42945;51.718;5.324;2023-05-24T10:18:09;102179.94;;;15.16;100.00
57056;BME280;42945;51.718;5.324;2023-05-24T10:20:35;102156.91;;;15.14;100.00
57056;BME280;42945;51.718;5.324;2023-05-24T10:23:03;102180.84;;;14.84;97.89
57056;BME280;42945;51.718;5.324;2023-05-24T10:25:33;102185.41;;;14.82;100.00
57056;BME280;42945;51.718;5.324;2023-05-24T10:28:19;102171.31;;;14.62;100.00
57056;BME280;42945;51.718;5.324;2023-05-24T10:31:06;102034.25;;;13.79;100.00
57056;BME280;42945;51.718;5.324;2023-05-24T10:33:35;102152.69;;;15.10;100.00
57056;BME280;42945;51.718;5.324;2023-05-24T10:36:05;102182.13;;;14.92;100.00
57056;BME280;42945;51.718;5.324;2023-05-24T10:38:32;102038.41;;;14.18;99.82
57056;BME280;42945;51.718;5.324;2023-05-24T10:40:58;102059.69;;;14.20;99.11
57056;BME280;42945;51.718;5.324;2023-05-24T10:43:24;102032.41;;;13.97;99.92
57056;BME280;42945;51.718;5.324;2023-05-24T10:45:50;102048.47;;;14.13;99.65
57056;BME280;42945;51.718;5.324;2023-05-24T10:50:42;102188.72;;;14.52;100.00
57056;BME280;42945;51.718;5.324;2023-05-24T10:53:14;102201.78;;;14.75;100.00
57056;BME280;42945;51.718;5.324;2023-05-24T10:55:57;102159.34;;;14.52;100.00
57056;BME280;42945;51.718;5.324;2023-05-24T10:59:07;102126.69;;;14.31;100.00
57056;BME280;42945;51.718;5.324;2023-05-24T11:01:32;102203.81;;;15.20;100.00
57056;BME280;42945;51.718;5.324;2023-05-24T11:04:25;102134.72;;;14.64;100.00
57056;BME280;42945;51.718;5.324;2023-05-24T11:06:56;102071.41;;;14.98;100.00
57056;BME280;42945;51.718;5.324;2023-05-24T11:09:27;102171.16;;;14.99;100.00
57056;BME280;42945;51.718;5.324;2023-05-24T11:11:55;101989.47;;;14.51;100.00
57056;BME280;42945;51.718;5.324;2023-05-24T11:14:23;102168.25;;;15.81;100.00
57056;BME280;42945;51.718;5.324;2023-05-24T11:16:49;102069.94;;;14.92;100.00
57056;BME280;42945;51.718;5.324;2023-05-24T11:19:19;102201.59;;;14.79;100.00
57056;BME280;42945;51.718;5.324;2023-05-24T11:21:47;102171.34;;;15.89;100.00
57056;BME280;42945;51.718;5.324;2023-05-24T11:24:15;102063.88;;;15.67;96.82
57056;BME280;42945;51.718;5.324;2023-05-24T11:26:42;102142.28;;;15.67;97.16
57056;BME280;42945;51.718;5.324;2023-05-24T11:29:08;102134.00;;;15.72;99.20
57056;BME280;42945;51.718;5.324;2023-05-24T11:31:33;102220.88;;;15.33;100.00
57056;BME280;42945;51.718;5.324;2023-05-24T11:34:03;102127.69;;;15.11;100.00
57056;BME280;42945;51.718;5.324;2023-05-24T11:36:28;102159.16;;;16.00;99.74
57056;BME280;42945;51.718;5.324;2023-05-24T11:38:54;102166.69;;;15.93;92.01
57056;BME280;42945;51.718;5.324;2023-05-24T11:41:19;102155.03;;;16.39;97.92
57056;BME280;42945;51.718;5.324;2023-05-24T11:43:45;102141.38;;;16.58;94.65
57056;BME280;42945;51.718;5.324;2023-05-24T11:46:10;102157.34;;;16.00;91.56
57056;BME280;42945;51.718;5.324;2023-05-24T11:48:36;102035.41;;;15.66;91.76
57056;BME280;42945;51.718;5.324;2023-05-24T11:51:03;102123.25;;;16.04;89.42
57056;BME280;42945;51.718;5.324;2023-05-24T11:53:30;102141.88;;;16.05;86.74
57056;BME280;42945;51.718;5.324;2023-05-24T11:55:55;102178.06;;;16.41;89.02
57056;BME280;42945;51.718;5.324;2023-05-24T11:58:22;102074.91;;;16.50;85.67
57056;BME280;42945;51.718;5.324;2023-05-24T12:00:49;102149.13;;;16.91;91.06
57056;BME280;42945;51.718;5.324;2023-05-24T12:03:15;101831.06;;;15.41;89.94
57056;BME280;42945;51.718;5.324;2023-05-24T12:05:41;102126.13;;;17.01;86.62
57056;BME280;42945;51.718;5.324;2023-05-24T12:08:09;102162.97;;;16.98;80.14
57056;BME280;42945;51.718;5.324;2023-05-24T12:10:37;102117.44;;;16.54;80.20
57056;BME280;42945;51.718;5.324;2023-05-24T12:13:03;101996.22;;;15.81;82.84
57056;BME280;42945;51.718;5.324;2023-05-24T12:15:29;102133.41;;;16.27;86.95
57056;BME280;42945;51.718;5.324;2023-05-24T12:17:58;102121.97;;;16.83;84.29
57056;BME280;42945;51.718;5.324;2023-05-24T12:20:26;102145.88;;;17.00;81.24
57056;BME280;42945;51.718;5.324;2023-05-24T12:22:53;102050.31;;;16.43;80.44
57056;BME280;42945;51.718;5.324;2023-05-24T12:25:19;102168.44;;;16.96;77.90
57056;BME280;42945;51.718;5.324;2023-05-24T12:27:53;102149.69;;;16.67;77.91
57056;BME280;42945;51.718;5.324;2023-05-24T12:30:26;102164.47;;;16.30;80.82
57056;BME280;42945;51.718;5.324;2023-05-24T12:32:52;102156.38;;;16.01;86.22
57056;BME280;42945;51.718;5.324;2023-05-24T12:35:20;102125.66;;;16.23;87.66
57056;BME280;42945;51.718;5.324;2023-05-24T12:37:46;102063.50;;;15.43;87.09
57056;BME280;42945;51.718;5.324;2023-05-24T12:40:16;102023.47;;;15.57;87.53
57056;BME280;42945;51.718;5.324;2023-05-24T12:42:44;102091.34;;;16.29;83.75
57056;BME280;42945;51.718;5.324;2023-05-24T12:45:10;102149.19;;;17.18;83.63
57056;BME280;42945;51.718;5.324;2023-05-24T12:47:36;102124.03;;;16.92;83.62
57056;BME280;42945;51.718;5.324;2023-05-24T12:50:01;102083.84;;;16.78;83.02
57056;BME280;42945;51.718;5.324;2023-05-24T12:52:27;102139.16;;;16.93;78.76
57056;BME280;42945;51.718;5.324;2023-05-24T12:54:52;102151.97;;;17.44;78.64
57056;BME280;42945;51.718;5.324;2023-05-24T12:57:19;102160.59;;;17.35;71.08
57056;BME280;42945;51.718;5.324;2023-05-24T12:59:44;101703.06;;;14.04;84.02
57056;BME280;42945;51.718;5.324;2023-05-24T13:02:10;102148.81;;;16.38;78.75
57056;BME280;42945;51.718;5.324;2023-05-24T13:04:35;102129.16;;;16.09;82.93
57056;BME280;42945;51.718;5.324;2023-05-24T13:07:01;102149.13;;;16.48;82.43
57056;BME280;42945;51.718;5.324;2023-05-24T13:09:27;102155.25;;;16.50;77.04
57056;BME280;42945;51.718;5.324;2023-05-24T13:11:53;102094.38;;;16.66;78.43
57056;BME280;42945;51.718;5.324;2023-05-24T13:14:19;101988.44;;;15.01;82.42
57056;BME280;42945;51.718;5.324;2023-05-24T13:16:44;102133.75;;;16.07;90.29
57056;BME280;42945;51.718;5.324;2023-05-24T13:19:10;102132.84;;;16.51;85.28
57056;BME280;42945;51.718;5.324;2023-05-24T13:21:35;102123.38;;;16.88;80.50
57056;BME280;42945;51.718;5.324;2023-05-24T13:24:01;102116.66;;;16.67;82.31
57056;BME280;42945;51.718;5.324;2023-05-24T13:26:26;101886.59;;;15.93;83.84
57056;BME280;42945;51.718;5.324;2023-05-24T13:28:51;102146.22;;;16.94;80.36
57056;BME280;42945;51.718;5.324;2023-05-24T13:31:17;102024.59;;;15.83;79.11
57056;BME280;42945;51.718;5.324;2023-05-24T13:33:42;102118.25;;;17.12;75.29
57056;BME280;42945;51.718;5.324;2023-05-24T13:36:08;102031.19;;;17.45;75.94
57056;BME280;42945;51.718;5.324;2023-05-24T13:38:33;102134.75;;;16.63;78.87
57056;BME280;42945;51.718;5.324;2023-05-24T13:40:58;102104.34;;;16.93;81.44
57056;BME280;42945;51.718;5.324;2023-05-24T13:43:24;102135.53;;;16.65;79.09
57056;BME280;42945;51.718;5.324;2023-05-24T13:45:49;102217.41;;;18.36;80.94
57056;BME280;42945;51.718;5.324;2023-05-24T13:48:15;101981.75;;;16.82;76.83
57056;BME280;42945;51.718;5.324;2023-05-24T13:50:40;102016.84;;;16.92;76.60
57056;BME280;42945;51.718;5.324;2023-05-24T13:53:06;102122.00;;;17.10;79.44
57056;BME280;42945;51.718;5.324;2023-05-24T13:55:33;102125.00;;;17.32;82.12
57056;BME280;42945;51.718;5.324;2023-05-24T13:58:00;102150.97;;;16.90;77.12
57056;BME280;42945;51.718;5.324;2023-05-24T14:00:29;102125.59;;;17.23;78.24
57056;BME280;42945;51.718;5.324;2023-05-24T14:02:55;102026.97;;;16.45;82.29
57056;BME280;42945;51.718;5.324;2023-05-24T14:05:20;102008.59;;;17.22;76.09
57056;BME280;42945;51.718;5.324;2023-05-24T14:07:47;102096.75;;;17.00;77.54
57056;BME280;42945;51.718;5.324;2023-05-24T14:10:12;102056.47;;;16.72;78.30
57056;BME280;42945;51.718;5.324;2023-05-24T14:12:38;102106.03;;;17.08;75.91
57056;BME280;42945;51.718;5.324;2023-05-24T14:15:04;102127.66;;;16.77;77.03
57056;BME280;42945;51.718;5.324;2023-05-24T14:17:30;102127.09;;;17.00;78.96
57056;BME280;42945;51.718;5.324;2023-05-24T14:19:56;102116.03;;;17.46;75.63
57056;BME280;42945;51.718;5.324;2023-05-24T14:22:21;102073.19;;;17.32;77.12
57056;BME280;42945;51.718;5.324;2023-05-24T14:24:49;102053.47;;;16.50;74.76
57056;BME280;42945;51.718;5.324;2023-05-24T14:27:14;102079.56;;;17.17;74.87
57056;BME280;42945;51.718;5.324;2023-05-24T14:29:39;102031.44;;;16.59;77.92
57056;BME280;42945;51.718;5.324;2023-05-24T14:32:05;102117.34;;;16.70;81.19
57056;BME280;42945;51.718;5.324;2023-05-24T14:34:31;102144.22;;;16.40;80.12
57056;BME280;42945;51.718;5.324;2023-05-24T14:36:56;102122.47;;;17.17;79.80
57056;BME280;42945;51.718;5.324;2023-05-24T14:39:22;102000.81;;;15.93;87.44
57056;BME280;42945;51.718;5.324;2023-05-24T14:41:47;102125.97;;;16.90;80.71
57056;BME280;42945;51.718;5.324;2023-05-24T14:44:12;102135.22;;;17.40;82.25
57056;BME280;42945;51.718;5.324;2023-05-24T14:46:39;102052.69;;;17.31;77.14
57056;BME280;42945;51.718;5.324;2023-05-24T14:49:04;102096.75;;;17.54;75.84
57056;BME280;42945;51.718;5.324;2023-05-24T14:51:30;102039.22;;;17.45;71.77
57056;BME280;42945;51.718;5.324;2023-05-24T14:53:55;102088.03;;;17.50;71.09
57056;BME280;42945;51.718;5.324;2023-05-24T14:56:20;102009.56;;;16.52;70.52
57056;BME280;42945;51.718;5.324;2023-05-24T14:58:46;102080.25;;;17.33;69.63
57056;BME280;42945;51.718;5.324;2023-05-24T15:01:11;102047.25;;;17.98;65.67
57056;BME280;42945;51.718;5.324;2023-05-24T15:03:37;102057.72;;;17.63;67.15